sensor_id;sensor_type;location;lat;lon;timestamp;P1;durP1;ratioP1;P2;durP2;ratioP2
12493;SDS011;8260;51.422;6.786;2023-02-13T00:01:14;12.45;;;8.15;;
12493;SDS011;8260;51.422;6.786;2023-02-13T00:03:43;11.07;;;8.23;;
12493;SDS011;8260;51.422;6.786;2023-02-13T00:06:12;14.57;;;8.38;;
12493;SDS011;8260;51.422;6.786;2023-02-13T00:08:40;12.07;;;7.88;;
12493;SDS011;8260;51.422;6.786;2023-02-13T00:11:09;11.43;;;7.97;;
12493;SDS011;8260;51.422;6.786;2023-02-13T00:13:37;11.63;;;7.97;;
12493;SDS011;8260;51.422;6.786;2023-02-13T00:16:06;12.30;;;7.32;;
12493;SDS011;8260;51.422;6.786;2023-02-13T00:18:35;10.23;;;7.90;;
12493;SDS011;8260;51.422;6.786;2023-02-13T00:21:06;10.60;;;8.10;;
12493;SDS011;8260;51.422;6.786;2023-02-13T00:23:35;13.38;;;8.00;;
12493;SDS011;8260;51.422;6.786;2023-02-13T00:26:05;12.27;;;8.85;;
12493;SDS011;8260;51.422;6.786;2023-02-13T00:28:33;11.20;;;8.23;;
12493;SDS011;8260;51.422;6.786;2023-02-13T00:31:03;10.43;;;7.75;;
12493;SDS011;8260;51.422;6.786;2023-02-13T00:33:31;10.95;;;7.82;;
12493;SDS011;8260;51.422;6.786;2023-02-13T00:36:06;11.52;;;8.45;;
12493;SDS011;8260;51.422;6.786;2023-02-13T00:38:35;10.02;;;7.78;;
12493;SDS011;8260;51.422;6.786;2023-02-13T00:41:03;9.35;;;7.75;;
12493;SDS011;8260;51.422;6.786;2023-02-13T00:43:32;11.18;;;7.78;;
12493;SDS011;8260;51.422;6.786;2023-02-13T00:46:01;11.18;;;8.15;;
12493;SDS011;8260;51.422;6.786;2023-02-13T00:48:30;11.95;;;8.30;;
12493;SDS011;8260;51.422;6.786;2023-02-13T00:50:59;9.88;;;8.05;;
12493;SDS011;8260;51.422;6.786;2023-02-13T00:53:29;11.27;;;8.02;;
12493;SDS011;8260;51.422;6.786;2023-02-13T00:55:57;11.10;;;8.27;;
12493;SDS011;8260;51.422;6.786;2023-02-13T00:58:26;12.10;;;7.70;;
12493;SDS011;8260;51.422;6.786;2023-02-13T01:00:54;12.35;;;8.00;;
12493;SDS011;8260;51.422;6.786;2023-02-13T01:03:23;10.13;;;7.88;;
12493;SDS011;8260;51.422;6.786;2023-02-13T01:05:52;10.38;;;7.47;;
12493;SDS011;8260;51.422;6.786;2023-02-13T01:08:20;8.82;;;6.88;;
12493;SDS011;8260;51.422;6.786;2023-02-13T01:10:50;10.32;;;7.68;;
12493;SDS011;8260;51.422;6.786;2023-02-13T01:13:19;10.90;;;7.68;;
12493;SDS011;8260;51.422;6.786;2023-02-13T01:15:47;9.73;;;6.93;;
12493;SDS011;8260;51.422;6.786;2023-02-13T01:18:16;9.15;;;6.90;;
12493;SDS011;8260;51.422;6.786;2023-02-13T01:20:54;9.38;;;6.88;;
12493;SDS011;8260;51.422;6.786;2023-02-13T01:23:23;8.63;;;6.25;;
12493;SDS011;8260;51.422;6.786;2023-02-13T01:25:53;10.30;;;7.60;;
12493;SDS011;8260;51.422;6.786;2023-02-13T01:28:21;11.15;;;7.45;;
12493;SDS011;8260;51.422;6.786;2023-02-13T01:30:53;9.80;;;6.72;;
12493;SDS011;8260;51.422;6.786;2023-02-13T01:33:22;9.73;;;7.13;;
12493;SDS011;8260;51.422;6.786;2023-02-13T01:35:51;11.48;;;7.28;;
12493;SDS011;8260;51.422;6.786;2023-02-13T01:38:19;10.90;;;7.95;;
12493;SDS011;8260;51.422;6.786;2023-02-13T01:40:49;10.82;;;7.40;;
12493;SDS011;8260;51.422;6.786;2023-02-13T01:43:19;12.13;;;7.65;;
12493;SDS011;8260;51.422;6.786;2023-02-13T01:45:49;12.90;;;8.23;;
12493;SDS011;8260;51.422;6.786;2023-02-13T01:48:20;13.77;;;8.40;;
12493;SDS011;8260;51.422;6.786;2023-02-13T01:50:50;10.27;;;7.90;;
12493;SDS011;8260;51.422;6.786;2023-02-13T01:53:22;11.45;;;8.25;;
12493;SDS011;8260;51.422;6.786;2023-02-13T01:55:54;11.70;;;7.28;;
12493;SDS011;8260;51.422;6.786;2023-02-13T01:58:25;11.18;;;7.72;;
12493;SDS011;8260;51.422;6.786;2023-02-13T02:00:54;11.27;;;7.90;;
12493;SDS011;8260;51.422;6.786;2023-02-13T02:03:24;11.27;;;8.40;;
12493;SDS011;8260;51.422;6.786;2023-02-13T02:05:54;13.63;;;9.60;;
12493;SDS011;8260;51.422;6.786;2023-02-13T02:08:23;11.27;;;8.45;;
12493;SDS011;8260;51.422;6.786;2023-02-13T02:10:52;11.55;;;8.38;;
12493;SDS011;8260;51.422;6.786;2023-02-13T02:13:22;12.00;;;8.30;;
12493;SDS011;8260;51.422;6.786;2023-02-13T02:15:54;11.25;;;8.25;;
12493;SDS011;8260;51.422;6.786;2023-02-13T02:18:23;12.98;;;8.95;;
12493;SDS011;8260;51.422;6.786;2023-02-13T02:21:14;12.68;;;8.52;;
12493;SDS011;8260;51.422;6.786;2023-02-13T02:32:20;11.60;;;7.75;;
12493;SDS011;8260;51.422;6.786;2023-02-13T02:34:52;12.63;;;9.38;;
12493;SDS011;8260;51.422;6.786;2023-02-13T02:37:30;12.05;;;8.40;;
12493;SDS011;8260;51.422;6.786;2023-02-13T02:40:03;13.45;;;9.13;;
12493;SDS011;8260;51.422;6.786;2023-02-13T02:42:36;13.80;;;8.80;;
12493;SDS011;8260;51.422;6.786;2023-02-13T02:45:09;12.05;;;7.88;;
12493;SDS011;8260;51.422;6.786;2023-02-13T02:47:43;11.65;;;8.43;;
12493;SDS011;8260;51.422;6.786;2023-02-13T02:50:33;11.68;;;8.10;;
12493;SDS011;8260;51.422;6.786;2023-02-13T02:53:05;10.38;;;8.07;;
12493;SDS011;8260;51.422;6.786;2023-02-13T02:55:36;13.93;;;8.82;;
12493;SDS011;8260;51.422;6.786;2023-02-13T02:58:08;12.75;;;7.70;;
12493;SDS011;8260;51.422;6.786;2023-02-13T03:00:55;14.05;;;8.75;;
12493;SDS011;8260;51.422;6.786;2023-02-13T03:03:46;13.38;;;8.80;;
12493;SDS011;8260;51.422;6.786;2023-02-13T03:06:35;12.45;;;8.15;;
12493;SDS011;8260;51.422;6.786;2023-02-13T03:09:05;11.50;;;7.88;;
12493;SDS011;8260;51.422;6.786;2023-02-13T03:11:54;11.73;;;7.43;;
12493;SDS011;8260;51.422;6.786;2023-02-13T03:14:41;11.68;;;7.32;;
12493;SDS011;8260;51.422;6.786;2023-02-13T03:17:10;11.50;;;7.65;;
12493;SDS011;8260;51.422;6.786;2023-02-13T03:20:02;11.38;;;7.25;;
12493;SDS011;8260;51.422;6.786;2023-02-13T03:22:57;9.10;;;6.63;;
12493;SDS011;8260;51.422;6.786;2023-02-13T03:25:28;8.60;;;6.53;;
12493;SDS011;8260;51.422;6.786;2023-02-13T03:28:01;9.20;;;6.95;;
12493;SDS011;8260;51.422;6.786;2023-02-13T03:30:52;10.38;;;6.93;;
12493;SDS011;8260;51.422;6.786;2023-02-13T03:33:26;10.45;;;6.85;;
12493;SDS011;8260;51.422;6.786;2023-02-13T03:36:00;8.63;;;6.15;;
12493;SDS011;8260;51.422;6.786;2023-02-13T03:38:50;9.63;;;6.90;;
12493;SDS011;8260;51.422;6.786;2023-02-13T03:41:22;11.05;;;6.70;;
12493;SDS011;8260;51.422;6.786;2023-02-13T03:43:56;9.90;;;6.47;;
12493;SDS011;8260;51.422;6.786;2023-02-13T03:46:27;8.38;;;6.43;;
12493;SDS011;8260;51.422;6.786;2023-02-13T03:48:56;9.52;;;6.50;;
12493;SDS011;8260;51.422;6.786;2023-02-13T03:51:46;9.32;;;6.07;;
12493;SDS011;8260;51.422;6.786;2023-02-13T03:54:17;7.53;;;5.65;;
12493;SDS011;8260;51.422;6.786;2023-02-13T03:56:48;8.10;;;5.90;;
12493;SDS011;8260;51.422;6.786;2023-02-13T03:59:35;7.88;;;5.85;;
12493;SDS011;8260;51.422;6.786;2023-02-13T04:02:06;8.93;;;5.65;;
12493;SDS011;8260;51.422;6.786;2023-02-13T04:04:39;8.07;;;5.65;;
12493;SDS011;8260;51.422;6.786;2023-02-13T04:07:11;8.68;;;5.93;;
12493;SDS011;8260;51.422;6.786;2023-02-13T04:09:55;8.60;;;6.00;;
12493;SDS011;8260;51.422;6.786;2023-02-13T04:12:25;9.60;;;6.78;;
12493;SDS011;8260;51.422;6.786;2023-02-13T04:14:56;8.90;;;6.03;;
12493;SDS011;8260;51.422;6.786;2023-02-13T04:17:26;9.38;;;6.18;;
12493;SDS011;8260;51.422;6.786;2023-02-13T04:19:58;8.95;;;6.38;;
12493;SDS011;8260;51.422;6.786;2023-02-13T04:22:28;9.35;;;6.63;;
12493;SDS011;8260;51.422;6.786;2023-02-13T04:24:56;8.98;;;6.85;;
12493;SDS011;8260;51.422;6.786;2023-02-13T04:27:25;10.13;;;6.90;;
12493;SDS011;8260;51.422;6.786;2023-02-13T04:29:54;9.27;;;6.20;;
12493;SDS011;8260;51.422;6.786;2023-02-13T04:32:23;9.18;;;6.68;;
12493;SDS011;8260;51.422;6.786;2023-02-13T04:34:51;8.73;;;6.63;;
12493;SDS011;8260;51.422;6.786;2023-02-13T04:37:20;10.15;;;7.35;;
12493;SDS011;8260;51.422;6.786;2023-02-13T04:39:49;10.75;;;6.95;;
12493;SDS011;8260;51.422;6.786;2023-02-13T04:42:18;9.20;;;6.63;;
12493;SDS011;8260;51.422;6.786;2023-02-13T04:44:47;10.15;;;7.10;;
12493;SDS011;8260;51.422;6.786;2023-02-13T04:47:15;11.77;;;7.45;;
12493;SDS011;8260;51.422;6.786;2023-02-13T04:49:43;12.18;;;8.35;;
12493;SDS011;8260;51.422;6.786;2023-02-13T04:52:12;9.73;;;7.28;;
12493;SDS011;8260;51.422;6.786;2023-02-13T04:54:41;11.05;;;7.38;;
12493;SDS011;8260;51.422;6.786;2023-02-13T04:57:11;10.48;;;7.18;;
12493;SDS011;8260;51.422;6.786;2023-02-13T04:59:40;11.30;;;7.07;;
12493;SDS011;8260;51.422;6.786;2023-02-13T05:02:09;11.02;;;8.10;;
12493;SDS011;8260;51.422;6.786;2023-02-13T05:04:37;10.88;;;7.25;;
12493;SDS011;8260;51.422;6.786;2023-02-13T05:07:06;11.52;;;7.90;;
12493;SDS011;8260;51.422;6.786;2023-02-13T05:09:34;11.02;;;7.38;;
12493;SDS011;8260;51.422;6.786;2023-02-13T05:12:05;10.43;;;7.57;;
12493;SDS011;8260;51.422;6.786;2023-02-13T05:14:35;8.60;;;6.20;;
12493;SDS011;8260;51.422;6.786;2023-02-13T05:17:03;11.35;;;7.93;;
12493;SDS011;8260;51.422;6.786;2023-02-13T05:19:32;10.32;;;7.70;;
12493;SDS011;8260;51.422;6.786;2023-02-13T05:22:00;10.30;;;7.90;;
12493;SDS011;8260;51.422;6.786;2023-02-13T05:24:47;11.60;;;7.78;;
12493;SDS011;8260;51.422;6.786;2023-02-13T05:27:15;11.52;;;7.78;;
12493;SDS011;8260;51.422;6.786;2023-02-13T05:29:45;11.13;;;7.93;;
12493;SDS011;8260;51.422;6.786;2023-02-13T05:32:12;12.10;;;8.68;;
12493;SDS011;8260;51.422;6.786;2023-02-13T05:34:41;10.95;;;8.15;;
12493;SDS011;8260;51.422;6.786;2023-02-13T05:37:09;12.20;;;7.57;;
12493;SDS011;8260;51.422;6.786;2023-02-13T05:39:38;11.85;;;7.93;;
12493;SDS011;8260;51.422;6.786;2023-02-13T05:42:06;13.95;;;8.80;;
12493;SDS011;8260;51.422;6.786;2023-02-13T05:44:35;12.23;;;8.68;;
12493;SDS011;8260;51.422;6.786;2023-02-13T05:47:05;12.13;;;8.45;;
12493;SDS011;8260;51.422;6.786;2023-02-13T05:49:34;13.05;;;8.95;;
12493;SDS011;8260;51.422;6.786;2023-02-13T05:52:02;11.98;;;8.63;;
12493;SDS011;8260;51.422;6.786;2023-02-13T05:54:31;12.35;;;8.85;;
12493;SDS011;8260;51.422;6.786;2023-02-13T05:56:59;13.68;;;8.80;;
12493;SDS011;8260;51.422;6.786;2023-02-13T05:59:28;13.68;;;8.48;;
12493;SDS011;8260;51.422;6.786;2023-02-13T06:01:57;12.38;;;8.40;;
12493;SDS011;8260;51.422;6.786;2023-02-13T06:04:27;13.27;;;8.25;;
12493;SDS011;8260;51.422;6.786;2023-02-13T06:06:55;11.85;;;8.73;;
12493;SDS011;8260;51.422;6.786;2023-02-13T06:09:24;13.25;;;9.00;;
12493;SDS011;8260;51.422;6.786;2023-02-13T06:11:52;14.85;;;9.45;;
12493;SDS011;8260;51.422;6.786;2023-02-13T06:14:20;13.52;;;8.60;;
12493;SDS011;8260;51.422;6.786;2023-02-13T06:16:49;14.93;;;9.77;;
12493;SDS011;8260;51.422;6.786;2023-02-13T06:19:17;12.57;;;9.02;;
12493;SDS011;8260;51.422;6.786;2023-02-13T06:21:47;12.70;;;9.23;;
12493;SDS011;8260;51.422;6.786;2023-02-13T06:24:16;12.05;;;9.13;;
12493;SDS011;8260;51.422;6.786;2023-02-13T06:26:44;13.13;;;9.65;;
12493;SDS011;8260;51.422;6.786;2023-02-13T06:29:13;14.18;;;9.60;;
12493;SDS011;8260;51.422;6.786;2023-02-13T06:31:41;12.52;;;8.35;;
12493;SDS011;8260;51.422;6.786;2023-02-13T06:34:10;14.15;;;8.88;;
12493;SDS011;8260;51.422;6.786;2023-02-13T06:36:38;13.88;;;9.48;;
12493;SDS011;8260;51.422;6.786;2023-02-13T06:39:09;13.27;;;9.15;;
12493;SDS011;8260;51.422;6.786;2023-02-13T06:41:37;13.20;;;8.73;;
12493;SDS011;8260;51.422;6.786;2023-02-13T06:44:06;12.90;;;8.50;;
12493;SDS011;8260;51.422;6.786;2023-02-13T06:46:34;11.80;;;9.15;;
12493;SDS011;8260;51.422;6.786;2023-02-13T06:49:03;13.07;;;9.60;;
12493;SDS011;8260;51.422;6.786;2023-02-13T06:51:34;14.40;;;9.95;;
12493;SDS011;8260;51.422;6.786;2023-02-13T06:54:02;15.10;;;9.82;;
12493;SDS011;8260;51.422;6.786;2023-02-13T06:56:32;12.98;;;9.38;;
12493;SDS011;8260;51.422;6.786;2023-02-13T06:59:00;14.55;;;9.68;;
12493;SDS011;8260;51.422;6.786;2023-02-13T07:01:29;13.82;;;9.55;;
12493;SDS011;8260;51.422;6.786;2023-02-13T07:03:58;13.98;;;9.98;;
12493;SDS011;8260;51.422;6.786;2023-02-13T07:06:27;14.68;;;8.88;;
12493;SDS011;8260;51.422;6.786;2023-02-13T07:08:55;15.00;;;9.43;;
12493;SDS011;8260;51.422;6.786;2023-02-13T07:11:23;13.55;;;9.35;;
12493;SDS011;8260;51.422;6.786;2023-02-13T07:13:53;15.68;;;9.80;;
12493;SDS011;8260;51.422;6.786;2023-02-13T07:16:22;14.10;;;9.75;;
12493;SDS011;8260;51.422;6.786;2023-02-13T07:18:50;14.40;;;9.65;;
12493;SDS011;8260;51.422;6.786;2023-02-13T07:21:19;14.52;;;9.90;;
12493;SDS011;8260;51.422;6.786;2023-02-13T07:23:47;14.73;;;10.05;;
12493;SDS011;8260;51.422;6.786;2023-02-13T07:26:16;15.48;;;10.43;;
12493;SDS011;8260;51.422;6.786;2023-02-13T07:28:44;13.35;;;9.88;;
12493;SDS011;8260;51.422;6.786;2023-02-13T07:31:14;15.55;;;10.20;;
12493;SDS011;8260;51.422;6.786;2023-02-13T07:33:43;14.90;;;10.25;;
12493;SDS011;8260;51.422;6.786;2023-02-13T07:36:11;15.18;;;11.32;;
12493;SDS011;8260;51.422;6.786;2023-02-13T07:38:39;17.00;;;11.25;;
12493;SDS011;8260;51.422;6.786;2023-02-13T07:41:08;16.42;;;10.85;;
12493;SDS011;8260;51.422;6.786;2023-02-13T07:43:37;17.15;;;11.40;;
12493;SDS011;8260;51.422;6.786;2023-02-13T07:46:05;16.35;;;11.60;;
12493;SDS011;8260;51.422;6.786;2023-02-13T07:48:35;16.48;;;11.40;;
12493;SDS011;8260;51.422;6.786;2023-02-13T07:51:04;13.95;;;10.40;;
12493;SDS011;8260;51.422;6.786;2023-02-13T07:53:32;15.93;;;10.30;;
12493;SDS011;8260;51.422;6.786;2023-02-13T07:56:03;17.02;;;11.55;;
12493;SDS011;8260;51.422;6.786;2023-02-13T07:58:32;15.55;;;11.88;;
12493;SDS011;8260;51.422;6.786;2023-02-13T08:01:04;16.38;;;11.65;;
12493;SDS011;8260;51.422;6.786;2023-02-13T08:03:33;14.48;;;11.00;;
12493;SDS011;8260;51.422;6.786;2023-02-13T08:06:03;17.85;;;11.80;;
12493;SDS011;8260;51.422;6.786;2023-02-13T08:08:32;18.13;;;12.48;;
12493;SDS011;8260;51.422;6.786;2023-02-13T08:11:02;13.73;;;10.43;;
12493;SDS011;8260;51.422;6.786;2023-02-13T08:13:48;15.20;;;11.07;;
12493;SDS011;8260;51.422;6.786;2023-02-13T08:16:17;18.88;;;12.00;;
12493;SDS011;8260;51.422;6.786;2023-02-13T08:18:45;15.90;;;11.23;;
12493;SDS011;8260;51.422;6.786;2023-02-13T08:21:15;17.58;;;11.60;;
12493;SDS011;8260;51.422;6.786;2023-02-13T08:23:44;17.00;;;12.23;;
12493;SDS011;8260;51.422;6.786;2023-02-13T08:26:14;14.05;;;10.73;;
12493;SDS011;8260;51.422;6.786;2023-02-13T08:28:42;17.00;;;11.10;;
12493;SDS011;8260;51.422;6.786;2023-02-13T08:31:11;14.57;;;10.25;;
12493;SDS011;8260;51.422;6.786;2023-02-13T08:33:40;13.10;;;9.98;;
12493;SDS011;8260;51.422;6.786;2023-02-13T08:36:08;13.93;;;10.80;;
12493;SDS011;8260;51.422;6.786;2023-02-13T08:38:38;14.15;;;10.77;;
12493;SDS011;8260;51.422;6.786;2023-02-13T08:41:07;13.40;;;9.60;;
12493;SDS011;8260;51.422;6.786;2023-02-13T08:43:36;12.73;;;10.00;;
12493;SDS011;8260;51.422;6.786;2023-02-13T08:46:04;13.52;;;10.32;;
12493;SDS011;8260;51.422;6.786;2023-02-13T08:48:33;14.35;;;9.88;;
12493;SDS011;8260;51.422;6.786;2023-02-13T08:51:04;13.43;;;9.93;;
12493;SDS011;8260;51.422;6.786;2023-02-13T08:56:03;12.73;;;9.70;;
12493;SDS011;8260;51.422;6.786;2023-02-13T08:58:32;11.13;;;8.90;;
12493;SDS011;8260;51.422;6.786;2023-02-13T09:01:03;13.95;;;9.73;;
12493;SDS011;8260;51.422;6.786;2023-02-13T09:03:31;12.32;;;9.32;;
12493;SDS011;8260;51.422;6.786;2023-02-13T09:06:00;14.57;;;9.27;;
12493;SDS011;8260;51.422;6.786;2023-02-13T09:08:29;13.52;;;10.25;;
12493;SDS011;8260;51.422;6.786;2023-02-13T09:10:58;12.13;;;8.73;;
12493;SDS011;8260;51.422;6.786;2023-02-13T09:13:29;12.65;;;9.65;;
12493;SDS011;8260;51.422;6.786;2023-02-13T09:16:00;11.65;;;8.73;;
12493;SDS011;8260;51.422;6.786;2023-02-13T09:18:31;11.55;;;8.05;;
12493;SDS011;8260;51.422;6.786;2023-02-13T09:21:00;11.00;;;8.60;;
12493;SDS011;8260;51.422;6.786;2023-02-13T09:23:30;12.57;;;9.25;;
12493;SDS011;8260;51.422;6.786;2023-02-13T09:25:58;11.82;;;8.45;;
12493;SDS011;8260;51.422;6.786;2023-02-13T09:28:29;11.98;;;8.48;;
12493;SDS011;8260;51.422;6.786;2023-02-13T09:30:58;10.73;;;8.63;;
12493;SDS011;8260;51.422;6.786;2023-02-13T09:33:27;11.77;;;8.30;;
12493;SDS011;8260;51.422;6.786;2023-02-13T09:35:55;11.02;;;8.70;;
12493;SDS011;8260;51.422;6.786;2023-02-13T09:38:24;10.63;;;7.88;;
12493;SDS011;8260;51.422;6.786;2023-02-13T09:40:53;11.50;;;8.77;;
12493;SDS011;8260;51.422;6.786;2023-02-13T09:43:26;10.82;;;8.48;;
12493;SDS011;8260;51.422;6.786;2023-02-13T09:45:57;10.43;;;7.90;;
12493;SDS011;8260;51.422;6.786;2023-02-13T09:48:27;11.25;;;8.13;;
12493;SDS011;8260;51.422;6.786;2023-02-13T09:50:56;9.52;;;8.07;;
12493;SDS011;8260;51.422;6.786;2023-02-13T09:53:26;10.77;;;8.40;;
12493;SDS011;8260;51.422;6.786;2023-02-13T09:56:00;11.18;;;9.43;;
12493;SDS011;8260;51.422;6.786;2023-02-13T09:58:34;9.75;;;8.02;;
12493;SDS011;8260;51.422;6.786;2023-02-13T10:01:08;11.25;;;8.23;;
12493;SDS011;8260;51.422;6.786;2023-02-13T10:03:45;9.73;;;7.45;;
12493;SDS011;8260;51.422;6.786;2023-02-13T10:06:19;11.10;;;7.75;;
12493;SDS011;8260;51.422;6.786;2023-02-13T10:08:55;9.32;;;7.97;;
12493;SDS011;8260;51.422;6.786;2023-02-13T10:11:30;9.93;;;7.70;;
12493;SDS011;8260;51.422;6.786;2023-02-13T10:14:07;12.93;;;7.53;;
12493;SDS011;8260;51.422;6.786;2023-02-13T10:16:40;11.35;;;8.65;;
12493;SDS011;8260;51.422;6.786;2023-02-13T10:19:12;10.50;;;8.43;;
12493;SDS011;8260;51.422;6.786;2023-02-13T10:21:44;10.13;;;7.82;;
12493;SDS011;8260;51.422;6.786;2023-02-13T10:24:20;10.68;;;8.07;;
12493;SDS011;8260;51.422;6.786;2023-02-13T10:26:52;8.98;;;7.93;;
12493;SDS011;8260;51.422;6.786;2023-02-13T10:29:24;11.55;;;7.72;;
12493;SDS011;8260;51.422;6.786;2023-02-13T10:32:15;9.85;;;7.43;;
12493;SDS011;8260;51.422;6.786;2023-02-13T10:34:46;10.23;;;7.80;;
12493;SDS011;8260;51.422;6.786;2023-02-13T10:37:16;9.90;;;8.02;;
12493;SDS011;8260;51.422;6.786;2023-02-13T10:39:45;10.73;;;7.38;;
12493;SDS011;8260;51.422;6.786;2023-02-13T10:42:18;11.63;;;7.72;;
12493;SDS011;8260;51.422;6.786;2023-02-13T10:44:51;8.55;;;7.05;;
12493;SDS011;8260;51.422;6.786;2023-02-13T10:47:29;9.57;;;7.45;;
12493;SDS011;8260;51.422;6.786;2023-02-13T10:50:06;9.48;;;7.30;;
12493;SDS011;8260;51.422;6.786;2023-02-13T10:52:39;8.15;;;7.07;;
12493;SDS011;8260;51.422;6.786;2023-02-13T10:55:14;9.00;;;7.30;;
12493;SDS011;8260;51.422;6.786;2023-02-13T10:57:51;8.73;;;7.15;;
12493;SDS011;8260;51.422;6.786;2023-02-13T11:00:23;8.45;;;7.15;;
12493;SDS011;8260;51.422;6.786;2023-02-13T11:02:57;8.40;;;7.43;;
12493;SDS011;8260;51.422;6.786;2023-02-13T11:05:29;9.65;;;6.78;;
12493;SDS011;8260;51.422;6.786;2023-02-13T11:07:58;9.10;;;7.13;;
12493;SDS011;8260;51.422;6.786;2023-02-13T11:10:27;7.47;;;6.57;;
12493;SDS011;8260;51.422;6.786;2023-02-13T11:12:56;8.07;;;7.03;;
12493;SDS011;8260;51.422;6.786;2023-02-13T11:15:25;8.05;;;7.25;;
12493;SDS011;8260;51.422;6.786;2023-02-13T11:17:56;8.48;;;6.82;;
12493;SDS011;8260;51.422;6.786;2023-02-13T11:20:28;8.57;;;6.90;;
12493;SDS011;8260;51.422;6.786;2023-02-13T11:23:10;9.05;;;6.80;;
12493;SDS011;8260;51.422;6.786;2023-02-13T11:25:40;8.00;;;6.40;;
12493;SDS011;8260;51.422;6.786;2023-02-13T11:28:12;8.35;;;6.55;;
12493;SDS011;8260;51.422;6.786;2023-02-13T11:30:43;9.10;;;6.90;;
12493;SDS011;8260;51.422;6.786;2023-02-13T11:33:17;7.50;;;6.47;;
12493;SDS011;8260;51.422;6.786;2023-02-13T11:35:50;7.68;;;6.20;;
12493;SDS011;8260;51.422;6.786;2023-02-13T11:38:34;7.32;;;5.93;;
12493;SDS011;8260;51.422;6.786;2023-02-13T11:41:04;7.82;;;6.95;;
12493;SDS011;8260;51.422;6.786;2023-02-13T11:43:33;7.43;;;6.30;;
12493;SDS011;8260;51.422;6.786;2023-02-13T11:46:04;7.60;;;6.68;;
12493;SDS011;8260;51.422;6.786;2023-02-13T11:48:36;10.07;;;6.47;;
12493;SDS011;8260;51.422;6.786;2023-02-13T11:51:06;6.65;;;6.05;;
12493;SDS011;8260;51.422;6.786;2023-02-13T11:53:35;6.82;;;5.68;;
12493;SDS011;8260;51.422;6.786;2023-02-13T11:56:07;6.95;;;5.97;;
12493;SDS011;8260;51.422;6.786;2023-02-13T11:58:36;9.02;;;6.28;;
12493;SDS011;8260;51.422;6.786;2023-02-13T12:01:09;7.65;;;6.82;;
12493;SDS011;8260;51.422;6.786;2023-02-13T12:03:39;7.40;;;6.32;;
12493;SDS011;8260;51.422;6.786;2023-02-13T12:06:12;7.65;;;6.85;;
12493;SDS011;8260;51.422;6.786;2023-02-13T12:08:42;7.45;;;6.25;;
12493;SDS011;8260;51.422;6.786;2023-02-13T12:11:15;7.13;;;6.43;;
12493;SDS011;8260;51.422;6.786;2023-02-13T12:13:45;6.88;;;5.90;;
12493;SDS011;8260;51.422;6.786;2023-02-13T12:16:16;6.35;;;5.72;;
12493;SDS011;8260;51.422;6.786;2023-02-13T12:18:49;8.35;;;6.40;;
12493;SDS011;8260;51.422;6.786;2023-02-13T12:21:26;8.43;;;5.55;;
12493;SDS011;8260;51.422;6.786;2023-02-13T12:24:02;7.82;;;5.63;;
12493;SDS011;8260;51.422;6.786;2023-02-13T12:26:32;7.47;;;6.50;;
12493;SDS011;8260;51.422;6.786;2023-02-13T12:29:07;7.93;;;5.93;;
12493;SDS011;8260;51.422;6.786;2023-02-13T12:31:46;6.30;;;5.70;;
12493;SDS011;8260;51.422;6.786;2023-02-13T12:37:12;6.50;;;5.70;;
12493;SDS011;8260;51.422;6.786;2023-02-13T12:39:46;7.40;;;6.65;;
12493;SDS011;8260;51.422;6.786;2023-02-13T12:42:22;9.60;;;6.45;;
12493;SDS011;8260;51.422;6.786;2023-02-13T12:47:41;7.22;;;6.53;;
12493;SDS011;8260;51.422;6.786;2023-02-13T12:50:20;7.15;;;6.32;;
12493;SDS011;8260;51.422;6.786;2023-02-13T12:52:59;6.95;;;6.25;;
12493;SDS011;8260;51.422;6.786;2023-02-13T12:55:36;7.55;;;6.38;;
12493;SDS011;8260;51.422;6.786;2023-02-13T12:58:08;5.65;;;5.15;;
12493;SDS011;8260;51.422;6.786;2023-02-13T13:00:43;5.60;;;5.00;;
12493;SDS011;8260;51.422;6.786;2023-02-13T13:03:27;6.55;;;5.60;;
12493;SDS011;8260;51.422;6.786;2023-02-13T13:06:09;6.78;;;5.20;;
12493;SDS011;8260;51.422;6.786;2023-02-13T13:11:32;6.25;;;5.40;;
12493;SDS011;8260;51.422;6.786;2023-02-13T13:14:05;6.32;;;5.70;;
12493;SDS011;8260;51.422;6.786;2023-02-13T13:16:41;5.53;;;5.03;;
12493;SDS011;8260;51.422;6.786;2023-02-13T13:19:13;7.05;;;4.97;;
12493;SDS011;8260;51.422;6.786;2023-02-13T13:21:47;6.43;;;5.45;;
12493;SDS011;8260;51.422;6.786;2023-02-13T13:24:30;9.25;;;4.53;;
12493;SDS011;8260;51.422;6.786;2023-02-13T13:27:02;6.03;;;4.55;;
12493;SDS011;8260;51.422;6.786;2023-02-13T13:29:32;5.78;;;4.85;;
12493;SDS011;8260;51.422;6.786;2023-02-13T13:32:04;5.80;;;5.15;;
12493;SDS011;8260;51.422;6.786;2023-02-13T13:34:34;5.80;;;4.60;;
12493;SDS011;8260;51.422;6.786;2023-02-13T13:37:06;7.80;;;4.22;;
12493;SDS011;8260;51.422;6.786;2023-02-13T13:39:42;5.00;;;4.43;;
12493;SDS011;8260;51.422;6.786;2023-02-13T13:42:16;8.40;;;4.22;;
12493;SDS011;8260;51.422;6.786;2023-02-13T13:44:51;5.43;;;4.32;;
12493;SDS011;8260;51.422;6.786;2023-02-13T13:47:23;4.75;;;4.18;;
12493;SDS011;8260;51.422;6.786;2023-02-13T13:49:54;4.78;;;4.30;;
12493;SDS011;8260;51.422;6.786;2023-02-13T13:52:23;7.15;;;4.63;;
12493;SDS011;8260;51.422;6.786;2023-02-13T13:54:53;5.80;;;4.38;;
12493;SDS011;8260;51.422;6.786;2023-02-13T13:57:23;5.30;;;4.18;;
12493;SDS011;8260;51.422;6.786;2023-02-13T14:02:45;6.75;;;4.38;;
12493;SDS011;8260;51.422;6.786;2023-02-13T14:05:22;7.63;;;4.32;;
12493;SDS011;8260;51.422;6.786;2023-02-13T14:07:51;4.45;;;3.95;;
12493;SDS011;8260;51.422;6.786;2023-02-13T14:13:09;5.13;;;3.78;;
12493;SDS011;8260;51.422;6.786;2023-02-13T14:15:55;4.43;;;3.90;;
12493;SDS011;8260;51.422;6.786;2023-02-13T14:18:24;4.40;;;3.80;;
12493;SDS011;8260;51.422;6.786;2023-02-13T14:20:54;3.92;;;3.53;;
12493;SDS011;8260;51.422;6.786;2023-02-13T14:23:37;5.93;;;3.22;;
12493;SDS011;8260;51.422;6.786;2023-02-13T14:26:21;3.50;;;3.20;;
12493;SDS011;8260;51.422;6.786;2023-02-13T14:28:57;3.78;;;3.38;;
12493;SDS011;8260;51.422;6.786;2023-02-13T14:31:27;3.53;;;3.22;;
12493;SDS011;8260;51.422;6.786;2023-02-13T14:33:57;4.03;;;3.38;;
12493;SDS011;8260;51.422;6.786;2023-02-13T14:36:28;4.20;;;3.40;;
12493;SDS011;8260;51.422;6.786;2023-02-13T14:38:59;3.22;;;2.92;;
12493;SDS011;8260;51.422;6.786;2023-02-13T14:41:42;3.83;;;3.30;;
12493;SDS011;8260;51.422;6.786;2023-02-13T14:44:15;3.90;;;2.90;;
12493;SDS011;8260;51.422;6.786;2023-02-13T14:46:46;4.28;;;3.72;;
12493;SDS011;8260;51.422;6.786;2023-02-13T14:49:16;4.57;;;3.30;;
12493;SDS011;8260;51.422;6.786;2023-02-13T14:51:47;2.75;;;2.47;;
12493;SDS011;8260;51.422;6.786;2023-02-13T14:54:19;5.28;;;3.42;;
12493;SDS011;8260;51.422;6.786;2023-02-13T14:56:51;3.30;;;3.00;;
12493;SDS011;8260;51.422;6.786;2023-02-13T14:59:23;3.35;;;3.05;;
12493;SDS011;8260;51.422;6.786;2023-02-13T15:01:53;3.53;;;2.90;;
12493;SDS011;8260;51.422;6.786;2023-02-13T15:04:25;5.05;;;3.22;;
12493;SDS011;8260;51.422;6.786;2023-02-13T15:06:57;3.80;;;3.38;;
12493;SDS011;8260;51.422;6.786;2023-02-13T15:09:29;4.20;;;3.30;;
12493;SDS011;8260;51.422;6.786;2023-02-13T15:11:59;3.78;;;3.22;;
12493;SDS011;8260;51.422;6.786;2023-02-13T15:14:33;3.58;;;2.92;;
12493;SDS011;8260;51.422;6.786;2023-02-13T15:17:03;4.20;;;2.55;;
12493;SDS011;8260;51.422;6.786;2023-02-13T15:19:33;4.95;;;2.97;;
12493;SDS011;8260;51.422;6.786;2023-02-13T15:22:03;3.30;;;3.00;;
12493;SDS011;8260;51.422;6.786;2023-02-13T15:24:37;5.32;;;3.00;;
12493;SDS011;8260;51.422;6.786;2023-02-13T15:27:15;3.92;;;2.92;;
12493;SDS011;8260;51.422;6.786;2023-02-13T15:29:59;3.33;;;2.83;;
12493;SDS011;8260;51.422;6.786;2023-02-13T15:32:30;3.72;;;2.97;;
12493;SDS011;8260;51.422;6.786;2023-02-13T15:34:59;5.20;;;2.65;;
12493;SDS011;8260;51.422;6.786;2023-02-13T15:37:28;3.75;;;2.65;;
12493;SDS011;8260;51.422;6.786;2023-02-13T15:40:13;3.72;;;2.53;;
12493;SDS011;8260;51.422;6.786;2023-02-13T15:42:41;2.70;;;2.42;;
12493;SDS011;8260;51.422;6.786;2023-02-13T15:45:14;3.05;;;2.40;;